sensor_id;sensor_type;location;lat;lon;timestamp;P1;durP1;ratioP1;P2;durP2;ratioP2
72117;SDS011;59992;47.490;8.736;2022-12-18T00:01:33;47.90;;;21.30;;
72117;SDS011;59992;47.490;8.736;2022-12-18T00:04:05;53.40;;;22.70;;
72117;SDS011;59992;47.490;8.736;2022-12-18T00:06:43;50.00;;;21.20;;
72117;SDS011;59992;47.490;8.736;2022-12-18T00:09:12;44.80;;;19.40;;
72117;SDS011;59992;47.490;8.736;2022-12-18T00:11:42;49.90;;;20.10;;
72117;SDS011;59992;47.490;8.736;2022-12-18T00:14:12;50.30;;;22.70;;
72117;SDS011;59992;47.490;8.736;2022-12-18T00:16:44;55.50;;;23.20;;
72117;SDS011;59992;47.490;8.736;2022-12-18T00:19:15;47.30;;;20.20;;
72117;SDS011;59992;47.490;8.736;2022-12-18T00:21:45;43.80;;;18.60;;
72117;SDS011;59992;47.490;8.736;2022-12-18T00:24:15;46.40;;;20.00;;
72117;SDS011;59992;47.490;8.736;2022-12-18T00:26:46;25.60;;;11.50;;
72117;SDS011;59992;47.490;8.736;2022-12-18T00:29:16;51.40;;;21.50;;
72117;SDS011;59992;47.490;8.736;2022-12-18T00:31:45;52.70;;;23.00;;
72117;SDS011;59992;47.490;8.736;2022-12-18T00:34:15;51.70;;;21.60;;
72117;SDS011;59992;47.490;8.736;2022-12-18T00:36:46;42.60;;;20.30;;
72117;SDS011;59992;47.490;8.736;2022-12-18T00:39:17;55.80;;;21.60;;
72117;SDS011;59992;47.490;8.736;2022-12-18T00:41:47;52.70;;;21.90;;
72117;SDS011;59992;47.490;8.736;2022-12-18T00:44:35;53.30;;;22.20;;
72117;SDS011;59992;47.490;8.736;2022-12-18T00:47:05;50.60;;;19.80;;
72117;SDS011;59992;47.490;8.736;2022-12-18T00:49:35;50.80;;;22.40;;
72117;SDS011;59992;47.490;8.736;2022-12-18T00:52:04;53.10;;;22.50;;
72117;SDS011;59992;47.490;8.736;2022-12-18T00:54:34;50.10;;;21.60;;
72117;SDS011;59992;47.490;8.736;2022-12-18T00:57:04;52.30;;;20.30;;
72117;SDS011;59992;47.490;8.736;2022-12-18T00:59:33;53.60;;;22.00;;
72117;SDS011;59992;47.490;8.736;2022-12-18T01:02:03;55.60;;;21.60;;
72117;SDS011;59992;47.490;8.736;2022-12-18T01:04:33;51.60;;;21.20;;
72117;SDS011;59992;47.490;8.736;2022-12-18T01:07:03;47.40;;;21.90;;
72117;SDS011;59992;47.490;8.736;2022-12-18T01:09:33;54.20;;;22.80;;
72117;SDS011;59992;47.490;8.736;2022-12-18T01:12:03;52.00;;;23.20;;
72117;SDS011;59992;47.490;8.736;2022-12-18T01:14:33;52.30;;;21.60;;
72117;SDS011;59992;47.490;8.736;2022-12-18T01:17:04;48.10;;;20.90;;
72117;SDS011;59992;47.490;8.736;2022-12-18T01:19:34;47.80;;;20.50;;
72117;SDS011;59992;47.490;8.736;2022-12-18T01:22:04;54.50;;;21.10;;
72117;SDS011;59992;47.490;8.736;2022-12-18T01:24:33;61.70;;;22.60;;
72117;SDS011;59992;47.490;8.736;2022-12-18T01:27:04;55.20;;;22.30;;
72117;SDS011;59992;47.490;8.736;2022-12-18T01:29:34;55.20;;;21.40;;
72117;SDS011;59992;47.490;8.736;2022-12-18T01:32:04;51.10;;;22.00;;
72117;SDS011;59992;47.490;8.736;2022-12-18T01:34:34;50.90;;;21.40;;
72117;SDS011;59992;47.490;8.736;2022-12-18T01:37:04;53.10;;;22.60;;
72117;SDS011;59992;47.490;8.736;2022-12-18T01:39:34;50.20;;;21.50;;
72117;SDS011;59992;47.490;8.736;2022-12-18T01:42:05;53.50;;;21.90;;
72117;SDS011;59992;47.490;8.736;2022-12-18T01:45:00;46.10;;;18.20;;
72117;SDS011;59992;47.490;8.736;2022-12-18T01:47:33;55.40;;;21.60;;
72117;SDS011;59992;47.490;8.736;2022-12-18T01:50:07;48.40;;;20.00;;
72117;SDS011;59992;47.490;8.736;2022-12-18T01:52:42;53.30;;;22.10;;
72117;SDS011;59992;47.490;8.736;2022-12-18T01:55:15;50.20;;;20.40;;
72117;SDS011;59992;47.490;8.736;2022-12-18T01:57:47;52.90;;;20.80;;
72117;SDS011;59992;47.490;8.736;2022-12-18T02:00:20;52.20;;;21.10;;
72117;SDS011;59992;47.490;8.736;2022-12-18T02:02:50;53.00;;;20.50;;
72117;SDS011;59992;47.490;8.736;2022-12-18T02:05:22;49.90;;;20.30;;
72117;SDS011;59992;47.490;8.736;2022-12-18T02:08:01;51.70;;;20.50;;
72117;SDS011;59992;47.490;8.736;2022-12-18T02:10:37;53.00;;;20.20;;
72117;SDS011;59992;47.490;8.736;2022-12-18T02:13:14;51.60;;;20.50;;
72117;SDS011;59992;47.490;8.736;2022-12-18T02:15:56;55.10;;;20.40;;
72117;SDS011;59992;47.490;8.736;2022-12-18T02:18:32;55.00;;;21.20;;
72117;SDS011;59992;47.490;8.736;2022-12-18T02:21:08;57.40;;;19.50;;
72117;SDS011;59992;47.490;8.736;2022-12-18T02:23:50;51.50;;;20.80;;
72117;SDS011;59992;47.490;8.736;2022-12-18T02:26:26;55.30;;;18.90;;
72117;SDS011;59992;47.490;8.736;2022-12-18T02:28:58;52.70;;;20.30;;
72117;SDS011;59992;47.490;8.736;2022-12-18T02:31:33;53.10;;;19.30;;
72117;SDS011;59992;47.490;8.736;2022-12-18T02:34:08;54.60;;;21.40;;
72117;SDS011;59992;47.490;8.736;2022-12-18T02:36:40;57.00;;;20.80;;
72117;SDS011;59992;47.490;8.736;2022-12-18T02:39:12;50.10;;;19.90;;
72117;SDS011;59992;47.490;8.736;2022-12-18T02:41:44;53.30;;;19.20;;
72117;SDS011;59992;47.490;8.736;2022-12-18T02:44:14;49.50;;;20.00;;
72117;SDS011;59992;47.490;8.736;2022-12-18T02:46:44;64.30;;;23.20;;
72117;SDS011;59992;47.490;8.736;2022-12-18T02:49:21;32.50;;;14.20;;
72117;SDS011;59992;47.490;8.736;2022-12-18T02:52:04;52.60;;;20.30;;
72117;SDS011;59992;47.490;8.736;2022-12-18T02:54:52;51.90;;;20.20;;
72117;SDS011;59992;47.490;8.736;2022-12-18T02:57:32;55.90;;;20.30;;
72117;SDS011;59992;47.490;8.736;2022-12-18T03:00:09;51.70;;;18.70;;
72117;SDS011;59992;47.490;8.736;2022-12-18T03:02:43;52.70;;;20.10;;
72117;SDS011;59992;47.490;8.736;2022-12-18T03:05:19;54.60;;;20.60;;
72117;SDS011;59992;47.490;8.736;2022-12-18T03:07:53;53.90;;;20.40;;
72117;SDS011;59992;47.490;8.736;2022-12-18T03:10:27;54.60;;;20.90;;
72117;SDS011;59992;47.490;8.736;2022-12-18T03:13:02;54.90;;;19.30;;
72117;SDS011;59992;47.490;8.736;2022-12-18T03:15:35;57.30;;;20.80;;
72117;SDS011;59992;47.490;8.736;2022-12-18T03:18:12;55.00;;;19.80;;
72117;SDS011;59992;47.490;8.736;2022-12-18T03:20:45;48.40;;;19.20;;
72117;SDS011;59992;47.490;8.736;2022-12-18T03:23:20;58.80;;;20.70;;
72117;SDS011;59992;47.490;8.736;2022-12-18T03:25:54;50.60;;;20.70;;
72117;SDS011;59992;47.490;8.736;2022-12-18T03:28:27;54.40;;;19.90;;
72117;SDS011;59992;47.490;8.736;2022-12-18T03:31:00;54.50;;;20.60;;
72117;SDS011;59992;47.490;8.736;2022-12-18T03:33:34;56.40;;;21.60;;
72117;SDS011;59992;47.490;8.736;2022-12-18T03:36:09;51.90;;;19.60;;
72117;SDS011;59992;47.490;8.736;2022-12-18T03:38:39;46.00;;;18.50;;
72117;SDS011;59992;47.490;8.736;2022-12-18T03:41:11;56.40;;;21.00;;
72117;SDS011;59992;47.490;8.736;2022-12-18T03:43:50;50.10;;;19.20;;
72117;SDS011;59992;47.490;8.736;2022-12-18T03:46:26;56.40;;;20.10;;
72117;SDS011;59992;47.490;8.736;2022-12-18T03:49:01;48.60;;;18.80;;
72117;SDS011;59992;47.490;8.736;2022-12-18T03:51:37;64.00;;;20.70;;
72117;SDS011;59992;47.490;8.736;2022-12-18T03:54:11;62.80;;;20.10;;
72117;SDS011;59992;47.490;8.736;2022-12-18T03:56:44;57.90;;;19.60;;
72117;SDS011;59992;47.490;8.736;2022-12-18T03:59:17;61.10;;;20.40;;
72117;SDS011;59992;47.490;8.736;2022-12-18T04:01:49;60.40;;;20.70;;
72117;SDS011;59992;47.490;8.736;2022-12-18T04:04:21;61.60;;;20.50;;
72117;SDS011;59992;47.490;8.736;2022-12-18T04:06:52;57.60;;;22.50;;
72117;SDS011;59992;47.490;8.736;2022-12-18T04:09:23;63.70;;;21.80;;
72117;SDS011;59992;47.490;8.736;2022-12-18T04:11:53;59.70;;;21.30;;
72117;SDS011;59992;47.490;8.736;2022-12-18T04:14:23;57.20;;;19.70;;
72117;SDS011;59992;47.490;8.736;2022-12-18T04:16:53;51.70;;;18.80;;
72117;SDS011;59992;47.490;8.736;2022-12-18T04:19:23;46.80;;;16.00;;
72117;SDS011;59992;47.490;8.736;2022-12-18T04:21:53;51.30;;;16.80;;
72117;SDS011;59992;47.490;8.736;2022-12-18T04:24:23;48.10;;;18.70;;
72117;SDS011;59992;47.490;8.736;2022-12-18T04:26:53;57.00;;;19.40;;
72117;SDS011;59992;47.490;8.736;2022-12-18T04:29:22;55.60;;;20.90;;
72117;SDS011;59992;47.490;8.736;2022-12-18T04:31:52;65.70;;;21.70;;
72117;SDS011;59992;47.490;8.736;2022-12-18T04:34:22;55.10;;;20.40;;
72117;SDS011;59992;47.490;8.736;2022-12-18T04:36:52;58.00;;;21.20;;
72117;SDS011;59992;47.490;8.736;2022-12-18T04:39:22;56.60;;;21.80;;
72117;SDS011;59992;47.490;8.736;2022-12-18T04:41:52;51.10;;;21.00;;
72117;SDS011;59992;47.490;8.736;2022-12-18T04:44:21;60.40;;;20.80;;
72117;SDS011;59992;47.490;8.736;2022-12-18T04:46:51;51.80;;;18.90;;
72117;SDS011;59992;47.490;8.736;2022-12-18T04:49:20;54.70;;;18.00;;
72117;SDS011;59992;47.490;8.736;2022-12-18T04:51:50;37.70;;;14.60;;
72117;SDS011;59992;47.490;8.736;2022-12-18T04:54:20;58.50;;;19.10;;
72117;SDS011;59992;47.490;8.736;2022-12-18T04:56:49;56.90;;;18.70;;
72117;SDS011;59992;47.490;8.736;2022-12-18T04:59:19;58.70;;;19.70;;
72117;SDS011;59992;47.490;8.736;2022-12-18T05:01:49;56.50;;;19.90;;
72117;SDS011;59992;47.490;8.736;2022-12-18T05:04:18;66.80;;;20.80;;
72117;SDS011;59992;47.490;8.736;2022-12-18T05:06:48;62.60;;;20.30;;
72117;SDS011;59992;47.490;8.736;2022-12-18T05:09:17;53.90;;;19.10;;
72117;SDS011;59992;47.490;8.736;2022-12-18T05:11:47;59.20;;;22.50;;
72117;SDS011;59992;47.490;8.736;2022-12-18T05:14:17;58.60;;;20.00;;
72117;SDS011;59992;47.490;8.736;2022-12-18T05:16:47;63.80;;;21.60;;
72117;SDS011;59992;47.490;8.736;2022-12-18T05:19:17;65.00;;;20.30;;
72117;SDS011;59992;47.490;8.736;2022-12-18T05:21:47;55.40;;;20.10;;
72117;SDS011;59992;47.490;8.736;2022-12-18T05:24:16;59.00;;;20.90;;
72117;SDS011;59992;47.490;8.736;2022-12-18T05:26:47;62.00;;;22.60;;
72117;SDS011;59992;47.490;8.736;2022-12-18T05:29:18;53.10;;;20.10;;
72117;SDS011;59992;47.490;8.736;2022-12-18T05:31:48;50.20;;;18.60;;
72117;SDS011;59992;47.490;8.736;2022-12-18T05:34:18;45.90;;;16.30;;
72117;SDS011;59992;47.490;8.736;2022-12-18T05:36:48;43.40;;;15.60;;
72117;SDS011;59992;47.490;8.736;2022-12-18T05:39:18;48.60;;;17.70;;
72117;SDS011;59992;47.490;8.736;2022-12-18T05:41:47;49.60;;;18.90;;
72117;SDS011;59992;47.490;8.736;2022-12-18T05:44:17;55.20;;;18.40;;
72117;SDS011;59992;47.490;8.736;2022-12-18T05:46:47;58.00;;;20.30;;
72117;SDS011;59992;47.490;8.736;2022-12-18T05:49:16;58.80;;;19.80;;
72117;SDS011;59992;47.490;8.736;2022-12-18T05:51:47;61.80;;;21.60;;
72117;SDS011;59992;47.490;8.736;2022-12-18T05:54:16;54.50;;;19.50;;
72117;SDS011;59992;47.490;8.736;2022-12-18T05:56:46;60.90;;;19.90;;
72117;SDS011;59992;47.490;8.736;2022-12-18T05:59:16;66.00;;;21.20;;
72117;SDS011;59992;47.490;8.736;2022-12-18T06:01:45;59.10;;;19.90;;
72117;SDS011;59992;47.490;8.736;2022-12-18T06:04:15;56.10;;;19.70;;
72117;SDS011;59992;47.490;8.736;2022-12-18T06:06:45;57.70;;;19.30;;
72117;SDS011;59992;47.490;8.736;2022-12-18T06:09:15;63.10;;;20.90;;
72117;SDS011;59992;47.490;8.736;2022-12-18T06:11:45;56.10;;;20.10;;
72117;SDS011;59992;47.490;8.736;2022-12-18T06:14:14;57.40;;;20.00;;
72117;SDS011;59992;47.490;8.736;2022-12-18T06:16:44;57.30;;;20.90;;
72117;SDS011;59992;47.490;8.736;2022-12-18T06:19:15;55.80;;;19.00;;
72117;SDS011;59992;47.490;8.736;2022-12-18T06:21:45;53.60;;;18.40;;
72117;SDS011;59992;47.490;8.736;2022-12-18T06:24:16;45.00;;;15.00;;
72117;SDS011;59992;47.490;8.736;2022-12-18T06:26:45;54.10;;;17.10;;
72117;SDS011;59992;47.490;8.736;2022-12-18T06:29:15;61.10;;;20.70;;
72117;SDS011;59992;47.490;8.736;2022-12-18T06:31:45;59.20;;;20.70;;
72117;SDS011;59992;47.490;8.736;2022-12-18T06:34:14;58.30;;;20.80;;
72117;SDS011;59992;47.490;8.736;2022-12-18T06:36:44;59.10;;;21.70;;
72117;SDS011;59992;47.490;8.736;2022-12-18T06:39:14;64.10;;;20.20;;
72117;SDS011;59992;47.490;8.736;2022-12-18T06:41:43;60.50;;;19.60;;
72117;SDS011;59992;47.490;8.736;2022-12-18T06:44:13;65.40;;;19.60;;
72117;SDS011;59992;47.490;8.736;2022-12-18T06:46:43;55.70;;;19.80;;
72117;SDS011;59992;47.490;8.736;2022-12-18T06:49:13;51.80;;;19.20;;
72117;SDS011;59992;47.490;8.736;2022-12-18T06:51:42;60.40;;;20.80;;
72117;SDS011;59992;47.490;8.736;2022-12-18T06:54:12;51.20;;;18.70;;
72117;SDS011;59992;47.490;8.736;2022-12-18T06:56:41;49.60;;;17.40;;
72117;SDS011;59992;47.490;8.736;2022-12-18T06:59:12;47.20;;;17.40;;
72117;SDS011;59992;47.490;8.736;2022-12-18T07:01:42;58.50;;;20.90;;
72117;SDS011;59992;47.490;8.736;2022-12-18T07:04:11;55.20;;;18.30;;
72117;SDS011;59992;47.490;8.736;2022-12-18T07:06:41;57.40;;;18.10;;
72117;SDS011;59992;47.490;8.736;2022-12-18T07:09:10;53.80;;;18.00;;
72117;SDS011;59992;47.490;8.736;2022-12-18T07:11:40;50.50;;;18.40;;
72117;SDS011;59992;47.490;8.736;2022-12-18T07:14:10;56.70;;;19.20;;
72117;SDS011;59992;47.490;8.736;2022-12-18T07:16:39;55.80;;;20.10;;
72117;SDS011;59992;47.490;8.736;2022-12-18T07:19:09;60.60;;;20.60;;
72117;SDS011;59992;47.490;8.736;2022-12-18T07:21:39;56.00;;;19.00;;
72117;SDS011;59992;47.490;8.736;2022-12-18T07:24:09;54.10;;;20.00;;
72117;SDS011;59992;47.490;8.736;2022-12-18T07:26:39;49.80;;;18.10;;
72117;SDS011;59992;47.490;8.736;2022-12-18T07:29:09;55.30;;;16.90;;
72117;SDS011;59992;47.490;8.736;2022-12-18T07:31:39;53.10;;;19.80;;
72117;SDS011;59992;47.490;8.736;2022-12-18T07:34:10;50.30;;;18.80;;
72117;SDS011;59992;47.490;8.736;2022-12-18T07:36:41;53.70;;;18.50;;
72117;SDS011;59992;47.490;8.736;2022-12-18T07:39:11;51.60;;;17.80;;
72117;SDS011;59992;47.490;8.736;2022-12-18T07:41:41;52.50;;;18.70;;
72117;SDS011;59992;47.490;8.736;2022-12-18T07:44:31;42.30;;;14.70;;
72117;SDS011;59992;47.490;8.736;2022-12-18T07:47:01;50.00;;;17.20;;
72117;SDS011;59992;47.490;8.736;2022-12-18T07:49:30;55.20;;;20.40;;
72117;SDS011;59992;47.490;8.736;2022-12-18T07:52:00;49.20;;;18.10;;
72117;SDS011;59992;47.490;8.736;2022-12-18T07:54:30;53.40;;;20.10;;
72117;SDS011;59992;47.490;8.736;2022-12-18T07:57:00;53.80;;;18.70;;
72117;SDS011;59992;47.490;8.736;2022-12-18T07:59:30;50.00;;;18.70;;
72117;SDS011;59992;47.490;8.736;2022-12-18T08:01:59;56.00;;;20.00;;
72117;SDS011;59992;47.490;8.736;2022-12-18T08:04:29;53.50;;;18.50;;
72117;SDS011;59992;47.490;8.736;2022-12-18T08:06:58;46.10;;;16.90;;
72117;SDS011;59992;47.490;8.736;2022-12-18T08:09:28;50.60;;;18.00;;
72117;SDS011;59992;47.490;8.736;2022-12-18T08:11:57;58.00;;;18.70;;
72117;SDS011;59992;47.490;8.736;2022-12-18T08:14:27;58.20;;;18.50;;
72117;SDS011;59992;47.490;8.736;2022-12-18T08:16:57;55.00;;;19.70;;
72117;SDS011;59992;47.490;8.736;2022-12-18T08:19:27;53.70;;;19.70;;
72117;SDS011;59992;47.490;8.736;2022-12-18T08:21:57;53.40;;;20.20;;
72117;SDS011;59992;47.490;8.736;2022-12-18T08:24:26;53.90;;;20.00;;
72117;SDS011;59992;47.490;8.736;2022-12-18T08:26:56;47.00;;;18.60;;
72117;SDS011;59992;47.490;8.736;2022-12-18T08:29:25;51.40;;;17.60;;
72117;SDS011;59992;47.490;8.736;2022-12-18T08:31:55;55.20;;;20.30;;
72117;SDS011;59992;47.490;8.736;2022-12-18T08:34:25;48.50;;;17.50;;
72117;SDS011;59992;47.490;8.736;2022-12-18T08:36:55;35.50;;;13.10;;
72117;SDS011;59992;47.490;8.736;2022-12-18T08:39:24;51.00;;;17.60;;
72117;SDS011;59992;47.490;8.736;2022-12-18T08:41:54;54.10;;;18.50;;
72117;SDS011;59992;47.490;8.736;2022-12-18T08:44:41;50.30;;;17.70;;
72117;SDS011;59992;47.490;8.736;2022-12-18T08:47:11;54.20;;;19.10;;
72117;SDS011;59992;47.490;8.736;2022-12-18T08:49:42;54.40;;;18.80;;
72117;SDS011;59992;47.490;8.736;2022-12-18T08:52:12;56.30;;;19.20;;
72117;SDS011;59992;47.490;8.736;2022-12-18T08:54:41;56.30;;;20.10;;
72117;SDS011;59992;47.490;8.736;2022-12-18T08:57:11;53.70;;;18.90;;
72117;SDS011;59992;47.490;8.736;2022-12-18T08:59:41;54.70;;;19.10;;
72117;SDS011;59992;47.490;8.736;2022-12-18T09:02:11;50.40;;;19.60;;
72117;SDS011;59992;47.490;8.736;2022-12-18T09:04:41;47.20;;;17.90;;
72117;SDS011;59992;47.490;8.736;2022-12-18T09:07:10;34.10;;;13.70;;
72117;SDS011;59992;47.490;8.736;2022-12-18T09:09:41;44.20;;;15.90;;
72117;SDS011;59992;47.490;8.736;2022-12-18T09:12:10;47.10;;;17.00;;
72117;SDS011;59992;47.490;8.736;2022-12-18T09:14:40;48.20;;;19.10;;
72117;SDS011;59992;47.490;8.736;2022-12-18T09:17:09;54.20;;;18.50;;
72117;SDS011;59992;47.490;8.736;2022-12-18T09:19:39;51.00;;;18.70;;
72117;SDS011;59992;47.490;8.736;2022-12-18T09:22:10;47.70;;;17.50;;
72117;SDS011;59992;47.490;8.736;2022-12-18T09:24:39;54.00;;;19.50;;
72117;SDS011;59992;47.490;8.736;2022-12-18T09:27:09;51.10;;;19.30;;
72117;SDS011;59992;47.490;8.736;2022-12-18T09:29:39;43.70;;;16.40;;
72117;SDS011;59992;47.490;8.736;2022-12-18T09:32:08;48.30;;;17.90;;
72117;SDS011;59992;47.490;8.736;2022-12-18T09:34:38;46.90;;;18.50;;
72117;SDS011;59992;47.490;8.736;2022-12-18T09:37:08;43.90;;;17.50;;
72117;SDS011;59992;47.490;8.736;2022-12-18T09:39:39;49.00;;;19.10;;
72117;SDS011;59992;47.490;8.736;2022-12-18T09:42:09;47.10;;;16.50;;
72117;SDS011;59992;47.490;8.736;2022-12-18T09:44:48;38.20;;;15.40;;
72117;SDS011;59992;47.490;8.736;2022-12-18T09:47:22;44.70;;;16.60;;
72117;SDS011;59992;47.490;8.736;2022-12-18T09:49:56;44.00;;;17.00;;
72117;SDS011;59992;47.490;8.736;2022-12-18T09:52:30;40.60;;;15.60;;
72117;SDS011;59992;47.490;8.736;2022-12-18T09:55:05;49.30;;;17.60;;
72117;SDS011;59992;47.490;8.736;2022-12-18T09:57:47;49.80;;;18.70;;
72117;SDS011;59992;47.490;8.736;2022-12-18T10:00:21;47.50;;;17.70;;
72117;SDS011;59992;47.490;8.736;2022-12-18T10:02:53;48.30;;;18.50;;
72117;SDS011;59992;47.490;8.736;2022-12-18T10:05:29;44.20;;;17.10;;
72117;SDS011;59992;47.490;8.736;2022-12-18T10:08:07;49.60;;;19.50;;
72117;SDS011;59992;47.490;8.736;2022-12-18T10:10:46;46.00;;;17.30;;
72117;SDS011;59992;47.490;8.736;2022-12-18T10:13:21;47.60;;;18.40;;
72117;SDS011;59992;47.490;8.736;2022-12-18T10:16:07;43.70;;;16.10;;
72117;SDS011;59992;47.490;8.736;2022-12-18T10:18:48;37.50;;;14.40;;
72117;SDS011;59992;47.490;8.736;2022-12-18T10:21:26;42.90;;;17.50;;
72117;SDS011;59992;47.490;8.736;2022-12-18T10:24:03;27.10;;;11.10;;
72117;SDS011;59992;47.490;8.736;2022-12-18T10:26:43;44.50;;;15.60;;
72117;SDS011;59992;47.490;8.736;2022-12-18T10:29:14;42.00;;;16.80;;
72117;SDS011;59992;47.490;8.736;2022-12-18T10:31:44;46.00;;;18.00;;
72117;SDS011;59992;47.490;8.736;2022-12-18T10:34:14;40.10;;;15.10;;
72117;SDS011;59992;47.490;8.736;2022-12-18T10:36:43;46.70;;;18.20;;
72117;SDS011;59992;47.490;8.736;2022-12-18T10:39:15;41.50;;;15.90;;
72117;SDS011;59992;47.490;8.736;2022-12-18T10:41:49;41.70;;;14.80;;
72117;SDS011;59992;47.490;8.736;2022-12-18T10:44:19;37.50;;;14.60;;
72117;SDS011;59992;47.490;8.736;2022-12-18T10:46:53;41.90;;;15.90;;
72117;SDS011;59992;47.490;8.736;2022-12-18T10:49:33;33.50;;;12.90;;
72117;SDS011;59992;47.490;8.736;2022-12-18T10:52:07;29.30;;;10.50;;
72117;SDS011;59992;47.490;8.736;2022-12-18T10:54:47;39.50;;;15.80;;
72117;SDS011;59992;47.490;8.736;2022-12-18T10:57:29;46.40;;;16.30;;
72117;SDS011;59992;47.490;8.736;2022-12-18T11:00:19;42.60;;;17.60;;
72117;SDS011;59992;47.490;8.736;2022-12-18T11:02:56;41.30;;;16.70;;
72117;SDS011;59992;47.490;8.736;2022-12-18T11:05:28;44.90;;;17.60;;
72117;SDS011;59992;47.490;8.736;2022-12-18T11:08:00;41.10;;;16.20;;
72117;SDS011;59992;47.490;8.736;2022-12-18T11:10:32;41.00;;;17.60;;
72117;SDS011;59992;47.490;8.736;2022-12-18T11:13:16;41.00;;;16.70;;
72117;SDS011;59992;47.490;8.736;2022-12-18T11:15:48;44.00;;;17.90;;
72117;SDS011;59992;47.490;8.736;2022-12-18T11:18:20;48.40;;;18.70;;
72117;SDS011;59992;47.490;8.736;2022-12-18T11:20:55;42.10;;;15.20;;
72117;SDS011;59992;47.490;8.736;2022-12-18T11:23:27;43.80;;;17.60;;
72117;SDS011;59992;47.490;8.736;2022-12-18T11:25:58;40.50;;;16.10;;
72117;SDS011;59992;47.490;8.736;2022-12-18T11:28:39;41.00;;;15.70;;
72117;SDS011;59992;47.490;8.736;2022-12-18T11:31:19;34.00;;;13.90;;
72117;SDS011;59992;47.490;8.736;2022-12-18T11:33:56;39.60;;;15.10;;
72117;SDS011;59992;47.490;8.736;2022-12-18T11:36:31;37.10;;;15.40;;
72117;SDS011;59992;47.490;8.736;2022-12-18T11:39:09;43.10;;;15.80;;
72117;SDS011;59992;47.490;8.736;2022-12-18T11:41:46;38.40;;;16.40;;
72117;SDS011;59992;47.490;8.736;2022-12-18T11:44:45;41.20;;;16.80;;
72117;SDS011;59992;47.490;8.736;2022-12-18T11:47:21;41.20;;;16.10;;
72117;SDS011;59992;47.490;8.736;2022-12-18T11:49:58;32.00;;;12.80;;
72117;SDS011;59992;47.490;8.736;2022-12-18T11:52:31;34.20;;;13.60;;
72117;SDS011;59992;47.490;8.736;2022-12-18T11:55:09;36.60;;;15.00;;
72117;SDS011;59992;47.490;8.736;2022-12-18T11:57:44;34.70;;;15.00;;
72117;SDS011;59992;47.490;8.736;2022-12-18T12:00:23;37.20;;;14.20;;
72117;SDS011;59992;47.490;8.736;2022-12-18T12:03:01;36.10;;;14.80;;
72117;SDS011;59992;47.490;8.736;2022-12-18T12:05:53;40.20;;;16.90;;
72117;SDS011;59992;47.490;8.736;2022-12-18T12:08:37;36.90;;;14.60;;
72117;SDS011;59992;47.490;8.736;2022-12-18T12:11:22;42.80;;;16.60;;
72117;SDS011;59992;47.490;8.736;2022-12-18T12:14:01;43.30;;;16.00;;
72117;SDS011;59992;47.490;8.736;2022-12-18T12:16:45;42.70;;;16.00;;
72117;SDS011;59992;47.490;8.736;2022-12-18T12:19:26;46.70;;;16.90;;
72117;SDS011;59992;47.490;8.736;2022-12-18T12:22:07;38.60;;;14.60;;
72117;SDS011;59992;47.490;8.736;2022-12-18T12:24:49;45.90;;;17.90;;
72117;SDS011;59992;47.490;8.736;2022-12-18T12:27:33;39.20;;;15.80;;
72117;SDS011;59992;47.490;8.736;2022-12-18T12:30:11;42.80;;;16.70;;
72117;SDS011;59992;47.490;8.736;2022-12-18T12:32:49;31.40;;;12.70;;
72117;SDS011;59992;47.490;8.736;2022-12-18T12:35:35;40.20;;;15.50;;
72117;SDS011;59992;47.490;8.736;2022-12-18T12:38:12;40.20;;;16.70;;
72117;SDS011;59992;47.490;8.736;2022-12-18T12:40:46;40.40;;;15.90;;
72117;SDS011;59992;47.490;8.736;2022-12-18T12:43:22;36.10;;;14.90;;
72117;SDS011;59992;47.490;8.736;2022-12-18T12:45:59;38.80;;;14.30;;
72117;SDS011;59992;47.490;8.736;2022-12-18T12:48:34;44.20;;;17.20;;
72117;SDS011;59992;47.490;8.736;2022-12-18T12:51:10;45.00;;;16.90;;
72117;SDS011;59992;47.490;8.736;2022-12-18T12:53:44;43.30;;;16.90;;
72117;SDS011;59992;47.490;8.736;2022-12-18T12:56:14;47.00;;;17.50;;
72117;SDS011;59992;47.490;8.736;2022-12-18T12:58:48;41.50;;;16.30;;
72117;SDS011;59992;47.490;8.736;2022-12-18T13:01:27;39.60;;;16.00;;
72117;SDS011;59992;47.490;8.736;2022-12-18T13:04:08;44.60;;;16.80;;
72117;SDS011;59992;47.490;8.736;2022-12-18T13:06:50;42.00;;;15.10;;
72117;SDS011;59992;47.490;8.736;2022-12-18T13:09:27;40.40;;;16.30;;
72117;SDS011;59992;47.490;8.736;2022-12-18T13:12:03;36.30;;;15.20;;
72117;SDS011;59992;47.490;8.736;2022-12-18T13:15:19;27.10;;;10.60;;
72117;SDS011;59992;47.490;8.736;2022-12-18T13:17:51;25.20;;;9.90;;
72117;SDS011;59992;47.490;8.736;2022-12-18T13:20:34;34.80;;;12.60;;
72117;SDS011;59992;47.490;8.736;2022-12-18T13:26:28;39.20;;;16.40;;
72117;SDS011;59992;47.490;8.736;2022-12-18T13:28:59;40.30;;;15.50;;
72117;SDS011;59992;47.490;8.736;2022-12-18T13:34:28;42.00;;;15.00;;
72117;SDS011;59992;47.490;8.736;2022-12-18T13:43:25;45.70;;;16.30;;
72117;SDS011;59992;47.490;8.736;2022-12-18T13:46:01;40.50;;;15.40;;
72117;SDS011;59992;47.490;8.736;2022-12-18T13:48:35;37.80;;;14.90;;
72117;SDS011;59992;47.490;8.736;2022-12-18T13:51:08;37.00;;;14.60;;
72117;SDS011;59992;47.490;8.736;2022-12-18T13:53:46;33.90;;;13.70;;
72117;SDS011;59992;47.490;8.736;2022-12-18T13:56:21;40.20;;;14.90;;
72117;SDS011;59992;47.490;8.736;2022-12-18T14:01:47;39.60;;;16.10;;
72117;SDS011;59992;47.490;8.736;2022-12-18T14:04:21;46.50;;;17.00;;
72117;SDS011;59992;47.490;8.736;2022-12-18T14:06:53;41.60;;;15.20;;
72117;SDS011;59992;47.490;8.736;2022-12-18T14:09:30;40.80;;;16.10;;
72117;SDS011;59992;47.490;8.736;2022-12-18T14:12:04;45.10;;;17.40;;
72117;SDS011;59992;47.490;8.736;2022-12-18T14:14:53;40.50;;;15.30;;
72117;SDS011;59992;47.490;8.736;2022-12-18T14:17:24;41.80;;;15.90;;
72117;SDS011;59992;47.490;8.736;2022-12-18T14:19:54;40.30;;;15.90;;
72117;SDS011;59992;47.490;8.736;2022-12-18T14:22:26;38.40;;;14.00;;
72117;SDS011;59992;47.490;8.736;2022-12-18T14:25:13;69.20;;;22.30;;
72117;SDS011;59992;47.490;8.736;2022-12-18T14:27:45;46.10;;;16.90;;
72117;SDS011;59992;47.490;8.736;2022-12-18T14:30:24;44.20;;;17.00;;
72117;SDS011;59992;47.490;8.736;2022-12-18T14:33:03;42.40;;;16.10;;
72117;SDS011;59992;47.490;8.736;2022-12-18T14:35:38;44.20;;;16.90;;
72117;SDS011;59992;47.490;8.736;2022-12-18T14:38:19;42.10;;;15.40;;
72117;SDS011;59992;47.490;8.736;2022-12-18T14:40:54;39.50;;;15.00;;
72117;SDS011;59992;47.490;8.736;2022-12-18T14:43:27;42.50;;;15.10;;
72117;SDS011;59992;47.490;8.736;2022-12-18T14:45:59;43.00;;;16.30;;
72117;SDS011;59992;47.490;8.736;2022-12-18T14:48:35;45.30;;;15.90;;
72117;SDS011;59992;47.490;8.736;2022-12-18T14:51:14;44.50;;;16.70;;
72117;SDS011;59992;47.490;8.736;2022-12-18T14:53:46;46.80;;;16.40;;
72117;SDS011;59992;47.490;8.736;2022-12-18T14:56:21;43.70;;;16.40;;
72117;SDS011;59992;47.490;8.736;2022-12-18T14:58:54;44.00;;;15.90;;
72117;SDS011;59992;47.490;8.736;2022-12-18T15:01:27;38.50;;;13.70;;
72117;SDS011;59992;47.490;8.736;2022-12-18T15:03:59;40.90;;;14.70;;
72117;SDS011;59992;47.490;8.736;2022-12-18T15:06:34;41.30;;;14.70;;
72117;SDS011;59992;47.490;8.736;2022-12-18T15:09:21;39.70;;;14.60;;
72117;SDS011;59992;47.490;8.736;2022-12-18T15:11:56;44.80;;;15.70;;